Aşgabat, Türkmenistan

Saat: 10:38 PM TMT Tarih: 27 Mayıs 2015 (GMT +0500)
Ashgabat | | Change Station
CLOSE
Current Station
Hava Meydanı
Location: Ashgabat,
Yükseklik: 689 ft
Nearby Weather Stations

Elev 689 ft 37.98 °N, 58.37 °E | Updated 8 minutes ago

Mostly Cloudy
Çok Bulutlu
81
Feels Like 81
N
7
Rüzgar Değişken Rüzgar from DGD

Bugün
High -- | Low -- F°
--% Chance of Precip.
Dün
High -- | Low -- F°
Precip. -- inç
5:48 AM 8:19 PM
Şişkin Ay, 69% visible
Basınç 29.77 inç
Görüş Uzaklığı 6.2 mil
Bulutlar Few 5000 ft
Çok Bulutlu 10000 ft
Çok Bulutlu 23000 ft
Çiğ noktası 39
Nem oranı 23%
Yağış 0.00 inç
Kar Kalınlığı Not available.
0 out of 12
Pollen Not available.
Hava Kalitesi Not available.
Flu Activity Not available.
METAR UTAA 271730Z 12003MPS 9999 FEW050 BKN100 BKN230 27/04 Q1008 NOSIG

More Conditions Fewer Conditions

Basınç 29.77 inç
Görüş Uzaklığı 6.2 mil
Bulutlar Few 5000 ft
Çok Bulutlu 10000 ft
Çok Bulutlu 23000 ft
Çiğ noktası 39
Nem oranı 23%
Yağış 0.00 inç
Kar Kalınlığı Not available.
0 out of 12
Pollen Not available.
Hava Kalitesi Not available.
Flu Activity Not available.
METAR UTAA 271730Z 12003MPS 9999 FEW050 BKN100 BKN230 27/04 Q1008 NOSIG

More Conditions Fewer Conditions

10-Day Weather Forecast

Almanac

Gökbilim

May. 27, 2015 Rise Set
Gerçek Zaman
Günlük Tan
Deniz Tanı
Geceyarısı Yıldız Zamanı
Ay
Görünür Işığın Uzunluğu
Günün Uzunluğu
Tomorrow will be .
, % of the Moon is Illuminated

Günün En Yüksekleri

Country Highs Country Lows

Community

WunderPhotos

Upload Photos

1,824,731 photos uploaded!

WunderBlogs® & News

Nearby

Hava Kalitesi

  Hava Kalitesi Hava Kalitesi Endeksi Kirletici
Not available.

Kar Kalınlığı

Station Depth Yükseklik

Earthquake Activity

Şehir Distance Mag. Time & Date
Minimum magnitude displayed is 2.5.

Coastal Water Temperatures

Yer Sıcaklık

Stations

Nearby Weather Stations

Station Location Sıcaklık Rüzgar Etkisi Çiğ noktası Nem oranı Rüzgar Precip. Elev Güncellenme Zamanı Biçim